sensor_id;sensor_type;location;lat;lon;timestamp;P1;durP1;ratioP1;P2;durP2;ratioP2
21458;SDS011;10891;49.350;19.386;2022-09-24T00:00:56;68.70;;;20.23;;
21458;SDS011;10891;49.350;19.386;2022-09-24T00:03:25;63.10;;;16.55;;
21458;SDS011;10891;49.350;19.386;2022-09-24T00:05:52;71.07;;;17.17;;
21458;SDS011;10891;49.350;19.386;2022-09-24T00:08:19;70.00;;;19.08;;
21458;SDS011;10891;49.350;19.386;2022-09-24T00:10:46;89.45;;;20.95;;
21458;SDS011;10891;49.350;19.386;2022-09-24T00:13:14;136.48;;;23.55;;
21458;SDS011;10891;49.350;19.386;2022-09-24T00:15:43;106.22;;;22.63;;
21458;SDS011;10891;49.350;19.386;2022-09-24T00:18:12;85.15;;;20.17;;
21458;SDS011;10891;49.350;19.386;2022-09-24T00:20:42;75.85;;;21.33;;
21458;SDS011;10891;49.350;19.386;2022-09-24T00:23:10;70.50;;;20.55;;
21458;SDS011;10891;49.350;19.386;2022-09-24T00:25:39;65.07;;;19.48;;
21458;SDS011;10891;49.350;19.386;2022-09-24T00:28:23;76.50;;;19.25;;
21458;SDS011;10891;49.350;19.386;2022-09-24T00:30:50;71.68;;;19.25;;
21458;SDS011;10891;49.350;19.386;2022-09-24T00:33:17;66.22;;;19.65;;
21458;SDS011;10891;49.350;19.386;2022-09-24T00:35:46;54.70;;;19.00;;
21458;SDS011;10891;49.350;19.386;2022-09-24T00:38:13;57.42;;;17.55;;
21458;SDS011;10891;49.350;19.386;2022-09-24T00:40:40;77.05;;;18.15;;
21458;SDS011;10891;49.350;19.386;2022-09-24T00:45:50;45.05;;;16.17;;
21458;SDS011;10891;49.350;19.386;2022-09-24T00:48:19;68.53;;;18.08;;
21458;SDS011;10891;49.350;19.386;2022-09-24T00:50:47;59.10;;;18.98;;
21458;SDS011;10891;49.350;19.386;2022-09-24T00:53:15;59.53;;;18.98;;
21458;SDS011;10891;49.350;19.386;2022-09-24T00:55:46;95.43;;;20.20;;
21458;SDS011;10891;49.350;19.386;2022-09-24T00:58:18;89.43;;;20.38;;
21458;SDS011;10891;49.350;19.386;2022-09-24T01:00:47;69.80;;;19.95;;
21458;SDS011;10891;49.350;19.386;2022-09-24T01:03:18;82.60;;;22.23;;
21458;SDS011;10891;49.350;19.386;2022-09-24T01:05:49;123.63;;;26.90;;
21458;SDS011;10891;49.350;19.386;2022-09-24T01:08:16;70.05;;;19.42;;
21458;SDS011;10891;49.350;19.386;2022-09-24T01:10:54;73.80;;;21.45;;
21458;SDS011;10891;49.350;19.386;2022-09-24T01:13:51;91.05;;;22.63;;
21458;SDS011;10891;49.350;19.386;2022-09-24T01:16:31;77.60;;;16.13;;
21458;SDS011;10891;49.350;19.386;2022-09-24T01:19:10;48.25;;;16.85;;
21458;SDS011;10891;49.350;19.386;2022-09-24T01:21:57;55.00;;;17.48;;
21458;SDS011;10891;49.350;19.386;2022-09-24T01:24:33;68.03;;;19.88;;
21458;SDS011;10891;49.350;19.386;2022-09-24T01:27:12;79.95;;;23.35;;
21458;SDS011;10891;49.350;19.386;2022-09-24T01:29:53;88.70;;;21.08;;
21458;SDS011;10891;49.350;19.386;2022-09-24T01:32:27;89.72;;;20.92;;
21458;SDS011;10891;49.350;19.386;2022-09-24T01:35:00;71.95;;;20.50;;
21458;SDS011;10891;49.350;19.386;2022-09-24T01:37:31;78.72;;;20.40;;
21458;SDS011;10891;49.350;19.386;2022-09-24T01:40:00;90.07;;;26.33;;
21458;SDS011;10891;49.350;19.386;2022-09-24T01:42:28;98.55;;;29.70;;
21458;SDS011;10891;49.350;19.386;2022-09-24T01:44:58;79.78;;;24.60;;
21458;SDS011;10891;49.350;19.386;2022-09-24T01:47:28;61.22;;;19.67;;
21458;SDS011;10891;49.350;19.386;2022-09-24T01:49:57;72.60;;;20.33;;
21458;SDS011;10891;49.350;19.386;2022-09-24T01:52:26;78.78;;;20.50;;
21458;SDS011;10891;49.350;19.386;2022-09-24T01:54:56;68.90;;;20.30;;
21458;SDS011;10891;49.350;19.386;2022-09-24T01:57:28;55.63;;;18.83;;
21458;SDS011;10891;49.350;19.386;2022-09-24T01:59:58;71.00;;;22.42;;
21458;SDS011;10891;49.350;19.386;2022-09-24T02:02:29;55.75;;;21.70;;
21458;SDS011;10891;49.350;19.386;2022-09-24T02:05:00;64.45;;;20.83;;
21458;SDS011;10891;49.350;19.386;2022-09-24T02:07:33;93.95;;;22.75;;
21458;SDS011;10891;49.350;19.386;2022-09-24T02:10:04;87.10;;;24.52;;
21458;SDS011;10891;49.350;19.386;2022-09-24T02:12:31;61.90;;;19.73;;
21458;SDS011;10891;49.350;19.386;2022-09-24T02:15:04;44.13;;;18.00;;
21458;SDS011;10891;49.350;19.386;2022-09-24T02:17:35;60.78;;;19.48;;
21458;SDS011;10891;49.350;19.386;2022-09-24T02:20:07;65.97;;;20.70;;
21458;SDS011;10891;49.350;19.386;2022-09-24T02:22:38;86.88;;;20.85;;
21458;SDS011;10891;49.350;19.386;2022-09-24T02:25:07;63.83;;;20.63;;
21458;SDS011;10891;49.350;19.386;2022-09-24T02:27:38;82.60;;;25.77;;
21458;SDS011;10891;49.350;19.386;2022-09-24T02:30:07;47.15;;;18.17;;
21458;SDS011;10891;49.350;19.386;2022-09-24T02:32:35;38.80;;;17.17;;
21458;SDS011;10891;49.350;19.386;2022-09-24T02:35:05;62.83;;;17.85;;
21458;SDS011;10891;49.350;19.386;2022-09-24T02:37:35;59.63;;;17.25;;
21458;SDS011;10891;49.350;19.386;2022-09-24T02:40:04;304.75;;;49.47;;
21458;SDS011;10891;49.350;19.386;2022-09-24T02:42:33;86.93;;;17.95;;
21458;SDS011;10891;49.350;19.386;2022-09-24T02:45:01;73.78;;;16.38;;
21458;SDS011;10891;49.350;19.386;2022-09-24T02:47:30;149.38;;;29.48;;
21458;SDS011;10891;49.350;19.386;2022-09-24T02:49:57;130.43;;;25.60;;
21458;SDS011;10891;49.350;19.386;2022-09-24T02:52:24;91.10;;;19.75;;
21458;SDS011;10891;49.350;19.386;2022-09-24T02:54:51;87.32;;;14.27;;
21458;SDS011;10891;49.350;19.386;2022-09-24T02:57:18;59.33;;;14.95;;
21458;SDS011;10891;49.350;19.386;2022-09-24T02:59:45;124.47;;;25.27;;
21458;SDS011;10891;49.350;19.386;2022-09-24T03:02:12;111.03;;;22.13;;
21458;SDS011;10891;49.350;19.386;2022-09-24T03:04:40;106.75;;;17.48;;
21458;SDS011;10891;49.350;19.386;2022-09-24T03:07:07;168.15;;;14.73;;
21458;SDS011;10891;49.350;19.386;2022-09-24T03:09:35;84.90;;;12.57;;
21458;SDS011;10891;49.350;19.386;2022-09-24T03:12:02;103.82;;;16.73;;
21458;SDS011;10891;49.350;19.386;2022-09-24T03:14:29;51.10;;;10.70;;
21458;SDS011;10891;49.350;19.386;2022-09-24T03:16:56;75.78;;;11.18;;
21458;SDS011;10891;49.350;19.386;2022-09-24T03:19:23;69.97;;;11.38;;
21458;SDS011;10891;49.350;19.386;2022-09-24T03:21:51;75.85;;;11.90;;
21458;SDS011;10891;49.350;19.386;2022-09-24T03:24:18;46.20;;;11.38;;
21458;SDS011;10891;49.350;19.386;2022-09-24T03:26:44;46.67;;;12.68;;
21458;SDS011;10891;49.350;19.386;2022-09-24T03:29:11;60.15;;;11.60;;
21458;SDS011;10891;49.350;19.386;2022-09-24T03:31:38;149.85;;;27.05;;
21458;SDS011;10891;49.350;19.386;2022-09-24T03:34:04;99.63;;;19.75;;
21458;SDS011;10891;49.350;19.386;2022-09-24T03:36:31;115.57;;;13.75;;
21458;SDS011;10891;49.350;19.386;2022-09-24T03:38:59;43.72;;;14.25;;
21458;SDS011;10891;49.350;19.386;2022-09-24T03:41:26;48.28;;;12.23;;
21458;SDS011;10891;49.350;19.386;2022-09-24T03:43:53;56.63;;;10.90;;
21458;SDS011;10891;49.350;19.386;2022-09-24T03:46:20;47.10;;;10.98;;
21458;SDS011;10891;49.350;19.386;2022-09-24T03:48:51;50.70;;;12.43;;
21458;SDS011;10891;49.350;19.386;2022-09-24T03:51:18;28.90;;;10.25;;
21458;SDS011;10891;49.350;19.386;2022-09-24T03:53:45;63.10;;;10.98;;
21458;SDS011;10891;49.350;19.386;2022-09-24T03:56:14;33.42;;;7.97;;
21458;SDS011;10891;49.350;19.386;2022-09-24T03:58:41;77.53;;;11.60;;
21458;SDS011;10891;49.350;19.386;2022-09-24T04:01:11;47.22;;;10.40;;
21458;SDS011;10891;49.350;19.386;2022-09-24T04:03:38;64.18;;;13.93;;
21458;SDS011;10891;49.350;19.386;2022-09-24T04:06:05;57.53;;;12.27;;
21458;SDS011;10891;49.350;19.386;2022-09-24T04:08:32;60.80;;;9.30;;
21458;SDS011;10891;49.350;19.386;2022-09-24T04:10:59;50.42;;;11.82;;
21458;SDS011;10891;49.350;19.386;2022-09-24T04:13:27;36.22;;;10.45;;
21458;SDS011;10891;49.350;19.386;2022-09-24T04:15:54;65.68;;;10.32;;
21458;SDS011;10891;49.350;19.386;2022-09-24T04:18:21;62.63;;;11.55;;
21458;SDS011;10891;49.350;19.386;2022-09-24T04:20:48;38.97;;;9.60;;
21458;SDS011;10891;49.350;19.386;2022-09-24T04:23:15;39.75;;;9.88;;
21458;SDS011;10891;49.350;19.386;2022-09-24T04:25:42;28.90;;;12.02;;
21458;SDS011;10891;49.350;19.386;2022-09-24T04:28:09;120.35;;;13.10;;
21458;SDS011;10891;49.350;19.386;2022-09-24T04:30:38;59.33;;;10.43;;
21458;SDS011;10891;49.350;19.386;2022-09-24T04:33:05;57.72;;;12.27;;
21458;SDS011;10891;49.350;19.386;2022-09-24T04:35:32;182.13;;;19.52;;
21458;SDS011;10891;49.350;19.386;2022-09-24T04:38:00;182.63;;;20.63;;
21458;SDS011;10891;49.350;19.386;2022-09-24T04:40:27;139.18;;;18.90;;
21458;SDS011;10891;49.350;19.386;2022-09-24T04:42:55;81.20;;;11.15;;
21458;SDS011;10891;49.350;19.386;2022-09-24T04:45:22;104.85;;;12.85;;
21458;SDS011;10891;49.350;19.386;2022-09-24T04:47:50;127.65;;;15.75;;
21458;SDS011;10891;49.350;19.386;2022-09-24T04:50:21;69.40;;;15.27;;
21458;SDS011;10891;49.350;19.386;2022-09-24T04:52:48;54.17;;;11.77;;
21458;SDS011;10891;49.350;19.386;2022-09-24T04:55:15;126.25;;;16.27;;
21458;SDS011;10891;49.350;19.386;2022-09-24T04:57:44;49.53;;;9.70;;
21458;SDS011;10891;49.350;19.386;2022-09-24T05:00:12;105.55;;;12.63;;
21458;SDS011;10891;49.350;19.386;2022-09-24T05:02:41;35.95;;;10.95;;
21458;SDS011;10891;49.350;19.386;2022-09-24T05:05:10;254.60;;;23.15;;
21458;SDS011;10891;49.350;19.386;2022-09-24T05:07:38;70.05;;;11.23;;
21458;SDS011;10891;49.350;19.386;2022-09-24T05:10:06;120.22;;;18.42;;
21458;SDS011;10891;49.350;19.386;2022-09-24T05:12:33;118.22;;;16.77;;
21458;SDS011;10891;49.350;19.386;2022-09-24T05:15:00;148.95;;;17.20;;
21458;SDS011;10891;49.350;19.386;2022-09-24T05:17:27;117.60;;;19.10;;
21458;SDS011;10891;49.350;19.386;2022-09-24T05:19:54;56.58;;;11.75;;
21458;SDS011;10891;49.350;19.386;2022-09-24T05:22:23;84.30;;;11.45;;
21458;SDS011;10891;49.350;19.386;2022-09-24T05:24:51;80.25;;;11.48;;
21458;SDS011;10891;49.350;19.386;2022-09-24T05:27:18;28.80;;;10.45;;
21458;SDS011;10891;49.350;19.386;2022-09-24T05:29:45;32.92;;;7.95;;
21458;SDS011;10891;49.350;19.386;2022-09-24T05:32:13;39.38;;;8.10;;
21458;SDS011;10891;49.350;19.386;2022-09-24T05:34:43;31.38;;;8.45;;
21458;SDS011;10891;49.350;19.386;2022-09-24T05:37:11;48.35;;;9.63;;
21458;SDS011;10891;49.350;19.386;2022-09-24T05:39:40;60.45;;;9.93;;
21458;SDS011;10891;49.350;19.386;2022-09-24T05:42:08;24.73;;;8.88;;
21458;SDS011;10891;49.350;19.386;2022-09-24T05:44:38;63.05;;;9.60;;
21458;SDS011;10891;49.350;19.386;2022-09-24T05:47:04;49.08;;;8.32;;
21458;SDS011;10891;49.350;19.386;2022-09-24T05:49:31;70.43;;;8.77;;
21458;SDS011;10891;49.350;19.386;2022-09-24T05:51:59;57.67;;;7.53;;
21458;SDS011;10891;49.350;19.386;2022-09-24T05:54:28;42.25;;;7.90;;
21458;SDS011;10891;49.350;19.386;2022-09-24T05:57:08;38.80;;;9.40;;
21458;SDS011;10891;49.350;19.386;2022-09-24T05:59:40;69.20;;;11.40;;
21458;SDS011;10891;49.350;19.386;2022-09-24T06:02:08;29.60;;;6.95;;
21458;SDS011;10891;49.350;19.386;2022-09-24T06:04:37;51.83;;;10.48;;
21458;SDS011;10891;49.350;19.386;2022-09-24T06:07:05;41.97;;;9.70;;
21458;SDS011;10891;49.350;19.386;2022-09-24T06:09:32;24.85;;;8.63;;
21458;SDS011;10891;49.350;19.386;2022-09-24T06:12:02;34.33;;;9.43;;
21458;SDS011;10891;49.350;19.386;2022-09-24T06:14:34;31.05;;;9.80;;
21458;SDS011;10891;49.350;19.386;2022-09-24T06:17:02;51.83;;;12.38;;
21458;SDS011;10891;49.350;19.386;2022-09-24T06:19:32;41.50;;;12.57;;
21458;SDS011;10891;49.350;19.386;2022-09-24T06:21:59;27.85;;;12.43;;
21458;SDS011;10891;49.350;19.386;2022-09-24T06:24:26;25.10;;;12.00;;
21458;SDS011;10891;49.350;19.386;2022-09-24T06:26:57;21.67;;;10.15;;
21458;SDS011;10891;49.350;19.386;2022-09-24T06:29:24;23.70;;;8.38;;
21458;SDS011;10891;49.350;19.386;2022-09-24T06:31:53;14.48;;;7.72;;
21458;SDS011;10891;49.350;19.386;2022-09-24T06:34:20;14.05;;;7.38;;
21458;SDS011;10891;49.350;19.386;2022-09-24T06:36:52;14.88;;;6.60;;
21458;SDS011;10891;49.350;19.386;2022-09-24T06:39:22;9.55;;;6.35;;
21458;SDS011;10891;49.350;19.386;2022-09-24T06:41:51;8.38;;;6.10;;
21458;SDS011;10891;49.350;19.386;2022-09-24T06:44:18;9.65;;;5.85;;
21458;SDS011;10891;49.350;19.386;2022-09-24T06:46:46;12.93;;;7.82;;
21458;SDS011;10891;49.350;19.386;2022-09-24T06:49:14;8.93;;;6.32;;
21458;SDS011;10891;49.350;19.386;2022-09-24T06:51:41;10.88;;;6.47;;
21458;SDS011;10891;49.350;19.386;2022-09-24T06:54:08;10.80;;;6.38;;
21458;SDS011;10891;49.350;19.386;2022-09-24T06:56:35;5.35;;;4.35;;
21458;SDS011;10891;49.350;19.386;2022-09-24T06:59:07;5.82;;;4.57;;
21458;SDS011;10891;49.350;19.386;2022-09-24T07:01:34;9.50;;;5.95;;
21458;SDS011;10891;49.350;19.386;2022-09-24T07:04:01;7.55;;;5.40;;
21458;SDS011;10891;49.350;19.386;2022-09-24T07:06:30;8.63;;;5.18;;
21458;SDS011;10891;49.350;19.386;2022-09-24T07:09:13;19.70;;;12.13;;
21458;SDS011;10891;49.350;19.386;2022-09-24T07:11:41;18.65;;;12.15;;
21458;SDS011;10891;49.350;19.386;2022-09-24T07:14:11;21.75;;;12.80;;
21458;SDS011;10891;49.350;19.386;2022-09-24T07:16:38;20.88;;;12.60;;
21458;SDS011;10891;49.350;19.386;2022-09-24T07:19:08;13.70;;;9.98;;
21458;SDS011;10891;49.350;19.386;2022-09-24T07:21:40;11.75;;;7.65;;
21458;SDS011;10891;49.350;19.386;2022-09-24T07:24:10;17.10;;;9.68;;
21458;SDS011;10891;49.350;19.386;2022-09-24T07:26:37;11.27;;;6.80;;
21458;SDS011;10891;49.350;19.386;2022-09-24T07:29:04;13.45;;;8.93;;
21458;SDS011;10891;49.350;19.386;2022-09-24T07:31:31;11.48;;;7.60;;
21458;SDS011;10891;49.350;19.386;2022-09-24T07:34:00;10.40;;;6.35;;
21458;SDS011;10891;49.350;19.386;2022-09-24T07:36:27;9.90;;;6.97;;
21458;SDS011;10891;49.350;19.386;2022-09-24T07:38:56;11.88;;;6.85;;
21458;SDS011;10891;49.350;19.386;2022-09-24T07:41:23;11.38;;;6.65;;
21458;SDS011;10891;49.350;19.386;2022-09-24T07:43:50;10.80;;;6.45;;
21458;SDS011;10891;49.350;19.386;2022-09-24T07:46:17;10.30;;;6.40;;
21458;SDS011;10891;49.350;19.386;2022-09-24T07:48:45;10.27;;;6.65;;
21458;SDS011;10891;49.350;19.386;2022-09-24T07:51:13;10.85;;;6.38;;
21458;SDS011;10891;49.350;19.386;2022-09-24T07:53:40;8.40;;;6.22;;
21458;SDS011;10891;49.350;19.386;2022-09-24T07:56:08;11.18;;;7.20;;
21458;SDS011;10891;49.350;19.386;2022-09-24T07:58:35;16.13;;;7.40;;
21458;SDS011;10891;49.350;19.386;2022-09-24T08:01:02;13.48;;;7.50;;
21458;SDS011;10891;49.350;19.386;2022-09-24T08:03:29;11.00;;;7.50;;
21458;SDS011;10891;49.350;19.386;2022-09-24T08:05:56;11.27;;;7.90;;
21458;SDS011;10891;49.350;19.386;2022-09-24T08:08:25;12.27;;;7.70;;
21458;SDS011;10891;49.350;19.386;2022-09-24T08:10:52;13.10;;;7.60;;
21458;SDS011;10891;49.350;19.386;2022-09-24T08:13:20;12.10;;;7.78;;
21458;SDS011;10891;49.350;19.386;2022-09-24T08:15:53;12.13;;;7.35;;
21458;SDS011;10891;49.350;19.386;2022-09-24T08:18:22;12.23;;;7.72;;
21458;SDS011;10891;49.350;19.386;2022-09-24T08:20:49;19.65;;;7.30;;
21458;SDS011;10891;49.350;19.386;2022-09-24T08:23:16;28.20;;;7.80;;
21458;SDS011;10891;49.350;19.386;2022-09-24T08:25:44;27.58;;;9.48;;
21458;SDS011;10891;49.350;19.386;2022-09-24T08:28:11;27.85;;;9.05;;
21458;SDS011;10891;49.350;19.386;2022-09-24T08:30:42;21.70;;;10.02;;
21458;SDS011;10891;49.350;19.386;2022-09-24T08:33:09;39.00;;;10.80;;
21458;SDS011;10891;49.350;19.386;2022-09-24T08:35:37;33.88;;;10.32;;
21458;SDS011;10891;49.350;19.386;2022-09-24T08:38:04;30.50;;;11.10;;
21458;SDS011;10891;49.350;19.386;2022-09-24T08:40:32;30.40;;;11.90;;
21458;SDS011;10891;49.350;19.386;2022-09-24T08:43:05;26.65;;;10.73;;
21458;SDS011;10891;49.350;19.386;2022-09-24T08:45:44;24.63;;;9.90;;
21458;SDS011;10891;49.350;19.386;2022-09-24T08:48:32;27.08;;;10.73;;
21458;SDS011;10891;49.350;19.386;2022-09-24T08:51:04;32.78;;;11.57;;
21458;SDS011;10891;49.350;19.386;2022-09-24T08:53:39;24.27;;;8.85;;
21458;SDS011;10891;49.350;19.386;2022-09-24T08:56:12;31.70;;;10.60;;
21458;SDS011;10891;49.350;19.386;2022-09-24T08:58:44;24.40;;;9.55;;
21458;SDS011;10891;49.350;19.386;2022-09-24T09:01:19;18.48;;;9.65;;
21458;SDS011;10891;49.350;19.386;2022-09-24T09:03:52;21.38;;;9.63;;
21458;SDS011;10891;49.350;19.386;2022-09-24T09:06:33;22.80;;;10.75;;
21458;SDS011;10891;49.350;19.386;2022-09-24T09:09:22;18.23;;;11.18;;
21458;SDS011;10891;49.350;19.386;2022-09-24T09:11:51;23.15;;;11.10;;
21458;SDS011;10891;49.350;19.386;2022-09-24T09:14:24;17.98;;;9.25;;
21458;SDS011;10891;49.350;19.386;2022-09-24T09:17:01;19.73;;;9.77;;
21458;SDS011;10891;49.350;19.386;2022-09-24T09:19:32;14.95;;;8.38;;
21458;SDS011;10891;49.350;19.386;2022-09-24T09:22:00;16.42;;;9.27;;
21458;SDS011;10891;49.350;19.386;2022-09-24T09:24:34;15.85;;;9.43;;
21458;SDS011;10891;49.350;19.386;2022-09-24T09:27:09;14.25;;;8.45;;
21458;SDS011;10891;49.350;19.386;2022-09-24T09:29:38;11.57;;;6.65;;
21458;SDS011;10891;49.350;19.386;2022-09-24T09:32:11;5.47;;;3.85;;
21458;SDS011;10891;49.350;19.386;2022-09-24T09:34:53;4.95;;;2.75;;
21458;SDS011;10891;49.350;19.386;2022-09-24T09:37:27;3.83;;;2.20;;
21458;SDS011;10891;49.350;19.386;2022-09-24T09:40:03;3.13;;;2.20;;
21458;SDS011;10891;49.350;19.386;2022-09-24T09:42:41;6.05;;;1.73;;
21458;SDS011;10891;49.350;19.386;2022-09-24T09:45:17;5.88;;;2.20;;
21458;SDS011;10891;49.350;19.386;2022-09-24T09:47:53;4.60;;;2.20;;
21458;SDS011;10891;49.350;19.386;2022-09-24T09:50:24;3.28;;;2.10;;
21458;SDS011;10891;49.350;19.386;2022-09-24T09:52:53;2.95;;;1.98;;
21458;SDS011;10891;49.350;19.386;2022-09-24T09:55:21;2.30;;;1.90;;
21458;SDS011;10891;49.350;19.386;2022-09-24T09:57:50;4.60;;;2.10;;
21458;SDS011;10891;49.350;19.386;2022-09-24T10:00:31;4.13;;;2.15;;
21458;SDS011;10891;49.350;19.386;2022-09-24T10:03:01;2.70;;;1.88;;
21458;SDS011;10891;49.350;19.386;2022-09-24T10:05:29;3.33;;;1.75;;
21458;SDS011;10891;49.350;19.386;2022-09-24T10:07:56;3.80;;;2.13;;
21458;SDS011;10891;49.350;19.386;2022-09-24T10:10:24;2.42;;;1.98;;
21458;SDS011;10891;49.350;19.386;2022-09-24T10:12:52;5.65;;;3.35;;
21458;SDS011;10891;49.350;19.386;2022-09-24T10:15:20;3.20;;;2.40;;
21458;SDS011;10891;49.350;19.386;2022-09-24T10:17:50;5.13;;;3.17;;
21458;SDS011;10891;49.350;19.386;2022-09-24T10:20:21;2.28;;;1.90;;
21458;SDS011;10891;49.350;19.386;2022-09-24T10:22:52;3.15;;;1.98;;
21458;SDS011;10891;49.350;19.386;2022-09-24T10:25:23;7.65;;;4.60;;
21458;SDS011;10891;49.350;19.386;2022-09-24T10:27:53;3.97;;;2.83;;
21458;SDS011;10891;49.350;19.386;2022-09-24T10:30:50;9.77;;;4.15;;
21458;SDS011;10891;49.350;19.386;2022-09-24T10:33:18;5.03;;;3.17;;
21458;SDS011;10891;49.350;19.386;2022-09-24T10:35:46;8.10;;;3.63;;
21458;SDS011;10891;49.350;19.386;2022-09-24T10:38:14;7.30;;;3.63;;
21458;SDS011;10891;49.350;19.386;2022-09-24T10:40:44;4.35;;;3.03;;
21458;SDS011;10891;49.350;19.386;2022-09-24T10:43:14;3.90;;;2.53;;
21458;SDS011;10891;49.350;19.386;2022-09-24T10:45:51;3.08;;;2.40;;
21458;SDS011;10891;49.350;19.386;2022-09-24T10:48:33;3.13;;;1.95;;
21458;SDS011;10891;49.350;19.386;2022-09-24T10:51:09;4.97;;;2.55;;
21458;SDS011;10891;49.350;19.386;2022-09-24T10:53:47;2.95;;;2.03;;
21458;SDS011;10891;49.350;19.386;2022-09-24T10:56:22;5.47;;;2.30;;
21458;SDS011;10891;49.350;19.386;2022-09-24T11:02:02;4.57;;;1.90;;
21458;SDS011;10891;49.350;19.386;2022-09-24T11:04:49;3.53;;;2.55;;
21458;SDS011;10891;49.350;19.386;2022-09-24T11:07:25;3.97;;;2.00;;
21458;SDS011;10891;49.350;19.386;2022-09-24T11:10:16;5.75;;;2.33;;
21458;SDS011;10891;49.350;19.386;2022-09-24T11:12:50;3.40;;;2.50;;
21458;SDS011;10891;49.350;19.386;2022-09-24T11:15:31;4.82;;;2.30;;
21458;SDS011;10891;49.350;19.386;2022-09-24T11:18:19;5.00;;;2.38;;
21458;SDS011;10891;49.350;19.386;2022-09-24T11:21:02;3.15;;;2.25;;
21458;SDS011;10891;49.350;19.386;2022-09-24T11:23:48;5.15;;;2.10;;
21458;SDS011;10891;49.350;19.386;2022-09-24T11:26:28;9.15;;;5.88;;
21458;SDS011;10891;49.350;19.386;2022-09-24T11:32:04;5.75;;;3.80;;
21458;SDS011;10891;49.350;19.386;2022-09-24T11:34:39;20.08;;;10.63;;
21458;SDS011;10891;49.350;19.386;2022-09-24T11:37:19;6.60;;;3.78;;
21458;SDS011;10891;49.350;19.386;2022-09-24T11:39:59;8.50;;;3.75;;
21458;SDS011;10891;49.350;19.386;2022-09-24T11:42:35;9.23;;;4.38;;
21458;SDS011;10891;49.350;19.386;2022-09-24T11:48:17;9.85;;;5.20;;
21458;SDS011;10891;49.350;19.386;2022-09-24T11:51:00;12.23;;;6.95;;
21458;SDS011;10891;49.350;19.386;2022-09-24T11:53:40;9.75;;;5.15;;
21458;SDS011;10891;49.350;19.386;2022-09-24T11:56:13;16.92;;;5.20;;
21458;SDS011;10891;49.350;19.386;2022-09-24T11:58:44;13.95;;;5.75;;
21458;SDS011;10891;49.350;19.386;2022-09-24T12:01:16;9.93;;;3.92;;
21458;SDS011;10891;49.350;19.386;2022-09-24T12:03:47;16.88;;;5.22;;
21458;SDS011;10891;49.350;19.386;2022-09-24T12:06:22;11.40;;;3.92;;
21458;SDS011;10891;49.350;19.386;2022-09-24T12:08:55;24.40;;;7.10;;
21458;SDS011;10891;49.350;19.386;2022-09-24T12:11:30;13.48;;;5.47;;
21458;SDS011;10891;49.350;19.386;2022-09-24T12:14:00;21.42;;;8.75;;
21458;SDS011;10891;49.350;19.386;2022-09-24T12:16:34;15.63;;;6.80;;
21458;SDS011;10891;49.350;19.386;2022-09-24T12:19:06;9.80;;;4.18;;
21458;SDS011;10891;49.350;19.386;2022-09-24T12:21:39;13.10;;;6.90;;
21458;SDS011;10891;49.350;19.386;2022-09-24T12:24:10;10.30;;;3.40;;
21458;SDS011;10891;49.350;19.386;2022-09-24T12:26:42;23.20;;;4.95;;
21458;SDS011;10891;49.350;19.386;2022-09-24T12:29:16;15.18;;;5.00;;
21458;SDS011;10891;49.350;19.386;2022-09-24T12:32:23;43.85;;;10.18;;
21458;SDS011;10891;49.350;19.386;2022-09-24T12:35:16;11.82;;;5.65;;
21458;SDS011;10891;49.350;19.386;2022-09-24T12:37:51;20.15;;;6.22;;
21458;SDS011;10891;49.350;19.386;2022-09-24T12:43:25;39.03;;;10.50;;
21458;SDS011;10891;49.350;19.386;2022-09-24T12:45:58;35.08;;;9.50;;
21458;SDS011;10891;49.350;19.386;2022-09-24T12:48:27;20.48;;;7.15;;
21458;SDS011;10891;49.350;19.386;2022-09-24T12:50:59;19.77;;;9.70;;
21458;SDS011;10891;49.350;19.386;2022-09-24T12:53:31;36.53;;;14.43;;
21458;SDS011;10891;49.350;19.386;2022-09-24T12:56:00;12.60;;;8.38;;
21458;SDS011;10891;49.350;19.386;2022-09-24T12:58:35;14.48;;;6.68;;
21458;SDS011;10891;49.350;19.386;2022-09-24T13:01:04;49.75;;;28.63;;
21458;SDS011;10891;49.350;19.386;2022-09-24T13:03:34;7.63;;;4.10;;
21458;SDS011;10891;49.350;19.386;2022-09-24T13:06:03;11.88;;;5.13;;
21458;SDS011;10891;49.350;19.386;2022-09-24T13:08:44;6.43;;;3.10;;
21458;SDS011;10891;49.350;19.386;2022-09-24T13:11:24;11.55;;;6.43;;
21458;SDS011;10891;49.350;19.386;2022-09-24T13:13:59;8.02;;;5.40;;
21458;SDS011;10891;49.350;19.386;2022-09-24T13:16:30;3.80;;;2.60;;
21458;SDS011;10891;49.350;19.386;2022-09-24T13:19:02;20.45;;;10.13;;
21458;SDS011;10891;49.350;19.386;2022-09-24T13:21:32;7.32;;;3.17;;
21458;SDS011;10891;49.350;19.386;2022-09-24T13:24:09;7.53;;;4.30;;
21458;SDS011;10891;49.350;19.386;2022-09-24T13:26:36;8.40;;;3.78;;
21458;SDS011;10891;49.350;19.386;2022-09-24T13:29:05;11.45;;;5.63;;
21458;SDS011;10891;49.350;19.386;2022-09-24T13:31:49;78.43;;;34.55;;
21458;SDS011;10891;49.350;19.386;2022-09-24T13:34:21;21.42;;;8.80;;
21458;SDS011;10891;49.350;19.386;2022-09-24T13:36:53;5.55;;;3.67;;
21458;SDS011;10891;49.350;19.386;2022-09-24T13:39:26;63.92;;;27.55;;
21458;SDS011;10891;49.350;19.386;2022-09-24T13:42:00;8.75;;;4.22;;
21458;SDS011;10891;49.350;19.386;2022-09-24T13:44:35;5.10;;;2.55;;
21458;SDS011;10891;49.350;19.386;2022-09-24T13:47:09;38.33;;;16.52;;
21458;SDS011;10891;49.350;19.386;2022-09-24T13:49:39;28.13;;;10.70;;
21458;SDS011;10891;49.350;19.386;2022-09-24T13:52:11;8.68;;;3.53;;
21458;SDS011;10891;49.350;19.386;2022-09-24T13:54:46;6.43;;;2.83;;
21458;SDS011;10891;49.350;19.386;2022-09-24T13:57:21;10.13;;;3.80;;
21458;SDS011;10891;49.350;19.386;2022-09-24T14:00:11;13.70;;;5.15;;
21458;SDS011;10891;49.350;19.386;2022-09-24T14:02:39;8.82;;;3.17;;
21458;SDS011;10891;49.350;19.386;2022-09-24T14:05:14;7.80;;;3.30;;
21458;SDS011;10891;49.350;19.386;2022-09-24T14:07:50;4.07;;;2.85;;
21458;SDS011;10891;49.350;19.386;2022-09-24T14:10:25;5.63;;;2.90;;
21458;SDS011;10891;49.350;19.386;2022-09-24T14:12:59;6.72;;;4.05;;
21458;SDS011;10891;49.350;19.386;2022-09-24T14:15:56;5.43;;;2.30;;
21458;SDS011;10891;49.350;19.386;2022-09-24T14:18:27;5.95;;;3.25;;
21458;SDS011;10891;49.350;19.386;2022-09-24T14:20:56;3.50;;;2.22;;
21458;SDS011;10891;49.350;19.386;2022-09-24T14:23:29;8.30;;;4.40;;
21458;SDS011;10891;49.350;19.386;2022-09-24T14:26:01;9.18;;;3.60;;
21458;SDS011;10891;49.350;19.386;2022-09-24T14:28:29;4.40;;;2.55;;
21458;SDS011;10891;49.350;19.386;2022-09-24T14:30:59;7.57;;;5.03;;
21458;SDS011;10891;49.350;19.386;2022-09-24T14:33:28;6.90;;;4.47;;
21458;SDS011;10891;49.350;19.386;2022-09-24T14:35:57;15.60;;;9.85;;
21458;SDS011;10891;49.350;19.386;2022-09-24T14:38:26;13.23;;;7.40;;
21458;SDS011;10891;49.350;19.386;2022-09-24T14:40:58;8.18;;;5.00;;
21458;SDS011;10891;49.350;19.386;2022-09-24T14:43:30;6.20;;;4.00;;
21458;SDS011;10891;49.350;19.386;2022-09-24T14:46:04;7.78;;;3.80;;
21458;SDS011;10891;49.350;19.386;2022-09-24T14:48:34;10.40;;;4.10;;
21458;SDS011;10891;49.350;19.386;2022-09-24T14:51:01;21.00;;;7.90;;
21458;SDS011;10891;49.350;19.386;2022-09-24T14:53:29;11.13;;;5.20;;
21458;SDS011;10891;49.350;19.386;2022-09-24T14:55:58;45.15;;;24.42;;